sensor_id;sensor_type;location;lat;lon;timestamp;noise_LAeq;noise_LA_min;noise_LA_max;noise_LA01;noise_LA95
69620;Laerm;57654;51.434;5.984;2023-07-09T00:00:15;38.58;35.82;40.66;;
69620;Laerm;57654;51.434;5.984;2023-07-09T00:00:25;38.27;35.51;40.54;;
69620;Laerm;57654;51.434;5.984;2023-07-09T00:00:36;38.30;35.26;42.08;;
69620;Laerm;57654;51.434;5.984;2023-07-09T00:00:46;40.07;35.48;58.03;;
69620;Laerm;57654;51.434;5.984;2023-07-09T00:00:58;37.80;35.27;40.89;;
69620;Laerm;57654;51.434;5.984;2023-07-09T00:01:15;38.33;34.30;41.55;;
69620;Laerm;57654;51.434;5.984;2023-07-09T00:01:27;38.06;35.24;42.20;;
69620;Laerm;57654;51.434;5.984;2023-07-09T00:01:37;38.29;35.35;41.54;;
69620;Laerm;57654;51.434;5.984;2023-07-09T00:01:47;38.55;36.14;41.38;;
69620;Laerm;57654;51.434;5.984;2023-07-09T00:01:58;38.45;35.96;42.84;;
69620;Laerm;57654;51.434;5.984;2023-07-09T00:02:10;38.41;35.54;40.82;;
69620;Laerm;57654;51.434;5.984;2023-07-09T00:02:21;37.85;34.77;40.44;;
69620;Laerm;57654;51.434;5.984;2023-07-09T00:02:31;37.78;34.59;40.39;;
69620;Laerm;57654;51.434;5.984;2023-07-09T00:02:42;37.63;35.15;39.71;;
69620;Laerm;57654;51.434;5.984;2023-07-09T00:02:52;37.43;34.73;40.09;;
69620;Laerm;57654;51.434;5.984;2023-07-09T00:03:02;37.56;35.18;39.89;;
69620;Laerm;57654;51.434;5.984;2023-07-09T00:03:13;37.57;34.72;40.17;;
69620;Laerm;57654;51.434;5.984;2023-07-09T00:03:23;37.59;35.24;40.27;;
69620;Laerm;57654;51.434;5.984;2023-07-09T00:03:33;37.72;35.45;40.02;;
69620;Laerm;57654;51.434;5.984;2023-07-09T00:03:47;37.83;35.43;40.40;;
69620;Laerm;57654;51.434;5.984;2023-07-09T00:04:01;38.01;34.71;40.81;;
69620;Laerm;57654;51.434;5.984;2023-07-09T00:04:12;38.04;35.43;40.55;;
69620;Laerm;57654;51.434;5.984;2023-07-09T00:04:22;37.80;34.95;40.42;;
69620;Laerm;57654;51.434;5.984;2023-07-09T00:04:32;37.96;35.08;41.07;;
69620;Laerm;57654;51.434;5.984;2023-07-09T00:04:44;37.78;35.64;41.25;;
69620;Laerm;57654;51.434;5.984;2023-07-09T00:04:54;37.65;35.36;40.41;;
69620;Laerm;57654;51.434;5.984;2023-07-09T00:05:05;37.47;34.75;40.00;;
69620;Laerm;57654;51.434;5.984;2023-07-09T00:05:16;37.59;35.16;40.85;;
69620;Laerm;57654;51.434;5.984;2023-07-09T00:05:26;37.42;34.87;40.58;;
69620;Laerm;57654;51.434;5.984;2023-07-09T00:05:36;37.51;34.97;40.69;;
69620;Laerm;57654;51.434;5.984;2023-07-09T00:05:47;37.39;34.38;40.18;;
69620;Laerm;57654;51.434;5.984;2023-07-09T00:05:58;37.55;35.13;41.08;;
69620;Laerm;57654;51.434;5.984;2023-07-09T00:06:09;37.39;34.44;40.32;;
69620;Laerm;57654;51.434;5.984;2023-07-09T00:06:19;37.62;34.77;40.82;;
69620;Laerm;57654;51.434;5.984;2023-07-09T00:06:29;37.82;34.94;42.01;;
69620;Laerm;57654;51.434;5.984;2023-07-09T00:06:40;37.59;33.76;41.88;;
69620;Laerm;57654;51.434;5.984;2023-07-09T00:06:50;37.78;34.97;40.72;;
69620;Laerm;57654;51.434;5.984;2023-07-09T00:07:02;38.35;34.73;41.60;;
69620;Laerm;57654;51.434;5.984;2023-07-09T00:07:24;38.16;35.21;42.24;;
69620;Laerm;57654;51.434;5.984;2023-07-09T00:07:36;38.00;35.20;41.87;;
69620;Laerm;57654;51.434;5.984;2023-07-09T00:07:46;37.94;34.80;40.75;;
69620;Laerm;57654;51.434;5.984;2023-07-09T00:07:57;37.97;35.25;48.13;;
69620;Laerm;57654;51.434;5.984;2023-07-09T00:08:47;37.73;34.92;42.23;;
69620;Laerm;57654;51.434;5.984;2023-07-09T00:08:58;37.35;33.36;40.66;;
69620;Laerm;57654;51.434;5.984;2023-07-09T00:09:15;37.18;34.67;39.90;;
69620;Laerm;57654;51.434;5.984;2023-07-09T00:09:25;37.68;35.11;40.46;;
69620;Laerm;57654;51.434;5.984;2023-07-09T00:09:36;37.71;34.68;40.02;;
69620;Laerm;57654;51.434;5.984;2023-07-09T00:09:46;37.31;34.93;41.23;;
69620;Laerm;57654;51.434;5.984;2023-07-09T00:09:56;37.33;35.06;39.24;;
69620;Laerm;57654;51.434;5.984;2023-07-09T00:10:17;37.17;34.94;39.72;;
69620;Laerm;57654;51.434;5.984;2023-07-09T00:10:27;37.23;34.55;39.82;;
69620;Laerm;57654;51.434;5.984;2023-07-09T00:10:38;37.23;35.15;39.75;;
69620;Laerm;57654;51.434;5.984;2023-07-09T00:10:48;37.07;34.43;39.14;;
69620;Laerm;57654;51.434;5.984;2023-07-09T00:10:58;37.10;35.02;39.13;;
69620;Laerm;57654;51.434;5.984;2023-07-09T00:11:08;37.63;34.87;39.65;;
69620;Laerm;57654;51.434;5.984;2023-07-09T00:11:19;37.53;34.82;40.25;;
69620;Laerm;57654;51.434;5.984;2023-07-09T00:11:29;37.22;34.30;39.72;;
69620;Laerm;57654;51.434;5.984;2023-07-09T00:11:40;37.48;35.42;39.76;;
69620;Laerm;57654;51.434;5.984;2023-07-09T00:11:50;37.60;35.20;39.36;;
69620;Laerm;57654;51.434;5.984;2023-07-09T00:12:01;37.56;35.27;40.09;;
69620;Laerm;57654;51.434;5.984;2023-07-09T00:12:13;37.58;34.80;40.80;;
69620;Laerm;57654;51.434;5.984;2023-07-09T00:12:24;37.53;34.65;44.00;;
69620;Laerm;57654;51.434;5.984;2023-07-09T00:12:34;37.48;35.01;40.07;;
69620;Laerm;57654;51.434;5.984;2023-07-09T00:12:45;37.85;35.28;39.74;;
69620;Laerm;57654;51.434;5.984;2023-07-09T00:12:55;37.87;35.09;40.63;;
69620;Laerm;57654;51.434;5.984;2023-07-09T00:13:07;37.55;34.92;41.48;;
69620;Laerm;57654;51.434;5.984;2023-07-09T00:13:17;37.55;35.08;39.99;;
69620;Laerm;57654;51.434;5.984;2023-07-09T00:13:27;37.95;34.52;41.49;;
69620;Laerm;57654;51.434;5.984;2023-07-09T00:13:38;38.24;35.04;41.67;;
69620;Laerm;57654;51.434;5.984;2023-07-09T00:13:48;37.81;35.21;39.88;;
69620;Laerm;57654;51.434;5.984;2023-07-09T00:13:58;38.04;35.77;40.96;;
69620;Laerm;57654;51.434;5.984;2023-07-09T00:14:09;38.11;35.60;40.62;;
69620;Laerm;57654;51.434;5.984;2023-07-09T00:14:20;38.11;35.62;41.00;;
69620;Laerm;57654;51.434;5.984;2023-07-09T00:14:31;38.02;34.82;41.55;;
69620;Laerm;57654;51.434;5.984;2023-07-09T00:14:41;38.80;34.98;42.61;;
69620;Laerm;57654;51.434;5.984;2023-07-09T00:14:51;38.50;35.63;41.94;;
69620;Laerm;57654;51.434;5.984;2023-07-09T00:15:02;38.40;35.73;41.89;;
69620;Laerm;57654;51.434;5.984;2023-07-09T00:15:14;37.73;34.82;41.02;;
69620;Laerm;57654;51.434;5.984;2023-07-09T00:15:26;37.78;34.71;40.44;;
69620;Laerm;57654;51.434;5.984;2023-07-09T00:15:36;37.97;35.31;41.23;;
69620;Laerm;57654;51.434;5.984;2023-07-09T00:15:47;37.97;34.72;40.54;;
69620;Laerm;57654;51.434;5.984;2023-07-09T00:15:58;38.18;35.52;40.42;;
69620;Laerm;57654;51.434;5.984;2023-07-09T00:16:13;38.35;35.44;41.90;;
69620;Laerm;57654;51.434;5.984;2023-07-09T00:16:25;38.59;35.23;45.37;;
69620;Laerm;57654;51.434;5.984;2023-07-09T00:16:35;38.61;35.27;43.02;;
69620;Laerm;57654;51.434;5.984;2023-07-09T00:16:47;38.03;35.61;40.79;;
69620;Laerm;57654;51.434;5.984;2023-07-09T00:17:00;37.52;34.99;40.10;;
69620;Laerm;57654;51.434;5.984;2023-07-09T00:17:16;37.32;34.27;39.93;;
69620;Laerm;57654;51.434;5.984;2023-07-09T00:17:32;37.46;35.07;40.22;;
69620;Laerm;57654;51.434;5.984;2023-07-09T00:17:45;37.97;34.90;40.60;;
69620;Laerm;57654;51.434;5.984;2023-07-09T00:17:55;38.23;35.85;41.29;;
69620;Laerm;57654;51.434;5.984;2023-07-09T00:18:07;38.13;35.42;40.74;;
69620;Laerm;57654;51.434;5.984;2023-07-09T00:18:17;38.03;35.23;43.92;;
69620;Laerm;57654;51.434;5.984;2023-07-09T00:18:28;39.06;35.75;43.08;;
69620;Laerm;57654;51.434;5.984;2023-07-09T00:18:38;39.26;35.63;42.74;;
69620;Laerm;57654;51.434;5.984;2023-07-09T00:18:48;39.15;35.27;42.88;;
69620;Laerm;57654;51.434;5.984;2023-07-09T00:18:58;38.78;34.96;42.72;;
69620;Laerm;57654;51.434;5.984;2023-07-09T00:19:12;37.71;35.30;39.56;;
69620;Laerm;57654;51.434;5.984;2023-07-09T00:19:27;38.19;34.81;41.82;;
69620;Laerm;57654;51.434;5.984;2023-07-09T00:19:39;38.12;35.32;41.08;;
69620;Laerm;57654;51.434;5.984;2023-07-09T00:19:49;37.83;35.65;40.90;;
69620;Laerm;57654;51.434;5.984;2023-07-09T00:20:02;37.39;33.44;41.86;;
69620;Laerm;57654;51.434;5.984;2023-07-09T00:20:16;36.42;33.85;39.95;;
69620;Laerm;57654;51.434;5.984;2023-07-09T00:20:27;35.91;33.58;39.89;;
69620;Laerm;57654;51.434;5.984;2023-07-09T00:20:37;36.05;33.65;40.43;;
69620;Laerm;57654;51.434;5.984;2023-07-09T00:20:48;36.65;32.33;40.86;;
69620;Laerm;57654;51.434;5.984;2023-07-09T00:20:58;37.05;34.04;41.22;;
69620;Laerm;57654;51.434;5.984;2023-07-09T00:21:09;37.14;33.76;41.25;;
69620;Laerm;57654;51.434;5.984;2023-07-09T00:21:20;36.71;33.51;41.04;;
69620;Laerm;57654;51.434;5.984;2023-07-09T00:21:30;37.09;33.61;41.17;;
69620;Laerm;57654;51.434;5.984;2023-07-09T00:21:44;37.02;33.67;41.11;;
69620;Laerm;57654;51.434;5.984;2023-07-09T00:21:55;36.84;33.92;39.65;;
69620;Laerm;57654;51.434;5.984;2023-07-09T00:22:10;36.85;33.90;40.73;;
69620;Laerm;57654;51.434;5.984;2023-07-09T00:22:23;36.39;33.46;41.02;;
69620;Laerm;57654;51.434;5.984;2023-07-09T00:22:33;36.21;33.31;39.18;;
69620;Laerm;57654;51.434;5.984;2023-07-09T00:22:44;35.68;33.34;38.71;;
69620;Laerm;57654;51.434;5.984;2023-07-09T00:23:02;36.43;33.37;43.76;;
69620;Laerm;57654;51.434;5.984;2023-07-09T00:23:14;36.55;33.36;40.91;;
69620;Laerm;57654;51.434;5.984;2023-07-09T00:23:26;36.35;33.26;40.59;;
69620;Laerm;57654;51.434;5.984;2023-07-09T00:23:37;36.74;33.55;40.86;;
69620;Laerm;57654;51.434;5.984;2023-07-09T00:23:48;36.63;33.81;41.44;;
69620;Laerm;57654;51.434;5.984;2023-07-09T00:24:01;36.96;34.03;40.42;;
69620;Laerm;57654;51.434;5.984;2023-07-09T00:24:15;37.33;33.64;42.23;;
69620;Laerm;57654;51.434;5.984;2023-07-09T00:24:25;37.15;33.92;40.94;;
69620;Laerm;57654;51.434;5.984;2023-07-09T00:24:37;36.90;33.57;40.42;;
69620;Laerm;57654;51.434;5.984;2023-07-09T00:24:49;36.74;33.65;40.48;;
69620;Laerm;57654;51.434;5.984;2023-07-09T00:25:00;35.97;33.29;41.29;;
69620;Laerm;57654;51.434;5.984;2023-07-09T00:25:11;35.96;33.38;39.26;;
69620;Laerm;57654;51.434;5.984;2023-07-09T00:25:26;36.19;32.80;46.16;;
69620;Laerm;57654;51.434;5.984;2023-07-09T00:25:36;36.28;33.61;40.09;;
69620;Laerm;57654;51.434;5.984;2023-07-09T00:25:47;36.17;33.85;39.33;;
69620;Laerm;57654;51.434;5.984;2023-07-09T00:25:57;36.09;33.11;39.82;;
69620;Laerm;57654;51.434;5.984;2023-07-09T00:26:08;35.82;32.86;39.31;;
69620;Laerm;57654;51.434;5.984;2023-07-09T00:26:19;36.00;33.12;39.44;;
69620;Laerm;57654;51.434;5.984;2023-07-09T00:26:33;35.78;33.29;39.33;;
69620;Laerm;57654;51.434;5.984;2023-07-09T00:26:43;35.43;33.16;38.17;;
69620;Laerm;57654;51.434;5.984;2023-07-09T00:26:54;35.65;33.38;38.82;;
69620;Laerm;57654;51.434;5.984;2023-07-09T00:27:07;35.74;33.67;38.38;;
69620;Laerm;57654;51.434;5.984;2023-07-09T00:27:18;36.33;32.83;41.73;;
69620;Laerm;57654;51.434;5.984;2023-07-09T00:27:29;37.40;34.40;41.48;;
69620;Laerm;57654;51.434;5.984;2023-07-09T00:27:40;37.21;34.17;40.17;;
69620;Laerm;57654;51.434;5.984;2023-07-09T00:27:54;37.08;33.98;40.71;;
69620;Laerm;57654;51.434;5.984;2023-07-09T00:28:04;37.21;34.19;40.67;;
69620;Laerm;57654;51.434;5.984;2023-07-09T00:28:15;37.18;34.06;40.17;;
69620;Laerm;57654;51.434;5.984;2023-07-09T00:28:26;36.04;33.04;39.37;;
69620;Laerm;57654;51.434;5.984;2023-07-09T00:28:36;35.73;33.50;37.86;;
69620;Laerm;57654;51.434;5.984;2023-07-09T00:28:46;35.68;32.91;38.13;;
69620;Laerm;57654;51.434;5.984;2023-07-09T00:28:57;35.76;33.22;38.63;;
69620;Laerm;57654;51.434;5.984;2023-07-09T00:29:10;35.79;33.06;38.11;;
69620;Laerm;57654;51.434;5.984;2023-07-09T00:29:21;36.27;32.88;40.31;;
69620;Laerm;57654;51.434;5.984;2023-07-09T00:29:31;37.27;33.48;40.81;;
69620;Laerm;57654;51.434;5.984;2023-07-09T00:29:41;37.20;34.17;40.63;;
69620;Laerm;57654;51.434;5.984;2023-07-09T00:29:51;36.88;33.41;40.42;;
69620;Laerm;57654;51.434;5.984;2023-07-09T00:30:02;37.18;33.01;42.39;;
69620;Laerm;57654;51.434;5.984;2023-07-09T00:30:14;36.12;33.10;39.83;;
69620;Laerm;57654;51.434;5.984;2023-07-09T00:30:25;36.39;32.83;40.63;;
69620;Laerm;57654;51.434;5.984;2023-07-09T00:30:35;36.78;34.20;39.37;;
69620;Laerm;57654;51.434;5.984;2023-07-09T00:30:46;36.86;33.94;39.86;;
69620;Laerm;57654;51.434;5.984;2023-07-09T00:30:56;36.45;33.14;39.88;;
69620;Laerm;57654;51.434;5.984;2023-07-09T00:31:16;36.26;33.58;39.94;;
69620;Laerm;57654;51.434;5.984;2023-07-09T00:31:26;36.06;32.47;41.85;;
69620;Laerm;57654;51.434;5.984;2023-07-09T00:31:37;35.67;33.13;39.07;;
69620;Laerm;57654;51.434;5.984;2023-07-09T00:31:53;36.54;33.47;42.13;;
69620;Laerm;57654;51.434;5.984;2023-07-09T00:32:07;36.79;33.93;41.27;;
69620;Laerm;57654;51.434;5.984;2023-07-09T00:32:18;35.87;33.17;39.95;;
69620;Laerm;57654;51.434;5.984;2023-07-09T00:32:31;35.69;32.60;40.66;;
69620;Laerm;57654;51.434;5.984;2023-07-09T00:32:43;36.46;32.81;41.36;;
69620;Laerm;57654;51.434;5.984;2023-07-09T00:32:54;35.72;33.44;40.48;;
69620;Laerm;57654;51.434;5.984;2023-07-09T00:33:04;36.42;33.41;40.85;;
69620;Laerm;57654;51.434;5.984;2023-07-09T00:33:15;36.83;33.53;41.87;;
69620;Laerm;57654;51.434;5.984;2023-07-09T00:33:25;36.35;32.80;40.05;;
69620;Laerm;57654;51.434;5.984;2023-07-09T00:33:44;35.79;33.00;39.12;;
69620;Laerm;57654;51.434;5.984;2023-07-09T00:33:56;36.27;32.59;39.88;;
69620;Laerm;57654;51.434;5.984;2023-07-09T00:34:10;36.57;33.25;39.94;;
69620;Laerm;57654;51.434;5.984;2023-07-09T00:34:23;35.52;32.94;38.36;;
69620;Laerm;57654;51.434;5.984;2023-07-09T00:34:35;35.79;33.32;38.24;;
69620;Laerm;57654;51.434;5.984;2023-07-09T00:34:45;36.07;33.65;38.81;;
69620;Laerm;57654;51.434;5.984;2023-07-09T00:34:58;36.87;34.04;39.81;;
69620;Laerm;57654;51.434;5.984;2023-07-09T00:35:11;36.26;33.43;40.05;;
69620;Laerm;57654;51.434;5.984;2023-07-09T00:35:23;35.99;33.45;44.42;;
69620;Laerm;57654;51.434;5.984;2023-07-09T00:35:33;36.79;33.90;39.53;;
69620;Laerm;57654;51.434;5.984;2023-07-09T00:35:46;36.17;33.71;39.57;;
69620;Laerm;57654;51.434;5.984;2023-07-09T00:35:58;35.83;33.21;39.32;;
69620;Laerm;57654;51.434;5.984;2023-07-09T00:36:20;35.64;32.58;41.13;;
69620;Laerm;57654;51.434;5.984;2023-07-09T00:36:32;35.74;33.44;38.05;;
69620;Laerm;57654;51.434;5.984;2023-07-09T00:36:42;36.16;33.65;39.20;;
69620;Laerm;57654;51.434;5.984;2023-07-09T00:36:54;35.81;33.58;38.05;;
69620;Laerm;57654;51.434;5.984;2023-07-09T00:37:09;36.33;33.58;39.13;;
69620;Laerm;57654;51.434;5.984;2023-07-09T00:37:20;36.51;33.54;39.71;;
69620;Laerm;57654;51.434;5.984;2023-07-09T00:37:31;36.88;34.00;40.33;;
69620;Laerm;57654;51.434;5.984;2023-07-09T00:37:42;36.85;33.75;40.47;;
69620;Laerm;57654;51.434;5.984;2023-07-09T00:37:53;37.01;33.53;41.10;;
69620;Laerm;57654;51.434;5.984;2023-07-09T00:38:03;37.68;33.43;40.56;;
69620;Laerm;57654;51.434;5.984;2023-07-09T00:38:18;37.25;34.05;40.40;;
69620;Laerm;57654;51.434;5.984;2023-07-09T00:38:31;36.16;32.67;40.94;;
69620;Laerm;57654;51.434;5.984;2023-07-09T00:38:48;36.65;33.26;41.28;;
69620;Laerm;57654;51.434;5.984;2023-07-09T00:38:59;36.12;33.17;38.64;;
69620;Laerm;57654;51.434;5.984;2023-07-09T00:39:18;36.19;33.30;40.23;;
69620;Laerm;57654;51.434;5.984;2023-07-09T00:39:29;36.53;33.51;39.94;;
69620;Laerm;57654;51.434;5.984;2023-07-09T00:39:39;36.28;32.78;39.89;;
69620;Laerm;57654;51.434;5.984;2023-07-09T00:39:50;35.93;33.11;39.83;;
69620;Laerm;57654;51.434;5.984;2023-07-09T00:40:01;36.12;32.45;39.58;;
69620;Laerm;57654;51.434;5.984;2023-07-09T00:40:15;35.70;33.21;38.37;;
69620;Laerm;57654;51.434;5.984;2023-07-09T00:40:26;35.87;33.35;39.57;;
69620;Laerm;57654;51.434;5.984;2023-07-09T00:40:37;36.05;33.43;39.67;;
69620;Laerm;57654;51.434;5.984;2023-07-09T00:40:48;35.80;33.26;39.11;;
69620;Laerm;57654;51.434;5.984;2023-07-09T00:41:11;36.04;32.80;44.72;;
69620;Laerm;57654;51.434;5.984;2023-07-09T00:41:27;35.92;33.33;40.66;;
69620;Laerm;57654;51.434;5.984;2023-07-09T00:41:38;35.73;32.92;39.17;;
69620;Laerm;57654;51.434;5.984;2023-07-09T00:41:49;36.11;33.26;38.41;;
69620;Laerm;57654;51.434;5.984;2023-07-09T00:42:00;36.34;33.82;40.37;;
69620;Laerm;57654;51.434;5.984;2023-07-09T00:42:11;36.27;33.46;38.80;;
69620;Laerm;57654;51.434;5.984;2023-07-09T00:42:22;36.07;33.35;39.91;;
69620;Laerm;57654;51.434;5.984;2023-07-09T00:42:33;36.06;32.54;39.02;;
69620;Laerm;57654;51.434;5.984;2023-07-09T00:42:45;36.06;33.50;39.58;;
69620;Laerm;57654;51.434;5.984;2023-07-09T00:42:59;35.63;32.87;37.45;;
69620;Laerm;57654;51.434;5.984;2023-07-09T00:43:10;36.13;33.44;38.82;;
69620;Laerm;57654;51.434;5.984;2023-07-09T00:43:25;35.95;33.44;38.98;;
69620;Laerm;57654;51.434;5.984;2023-07-09T00:43:38;35.84;33.59;38.54;;
69620;Laerm;57654;51.434;5.984;2023-07-09T00:43:49;36.18;33.93;39.39;;
69620;Laerm;57654;51.434;5.984;2023-07-09T00:44:13;36.31;34.05;38.81;;
69620;Laerm;57654;51.434;5.984;2023-07-09T00:44:29;37.01;34.67;40.80;;
69620;Laerm;57654;51.434;5.984;2023-07-09T00:44:40;37.20;34.53;40.49;;
69620;Laerm;57654;51.434;5.984;2023-07-09T00:44:54;37.40;34.49;40.44;;
69620;Laerm;57654;51.434;5.984;2023-07-09T00:45:07;38.03;34.93;41.65;;
69620;Laerm;57654;51.434;5.984;2023-07-09T00:45:27;37.77;34.01;41.80;;
69620;Laerm;57654;51.434;5.984;2023-07-09T00:45:37;36.21;33.98;38.65;;
69620;Laerm;57654;51.434;5.984;2023-07-09T00:47:37;35.84;33.37;40.38;;
69620;Laerm;57654;51.434;5.984;2023-07-09T00:48:05;37.58;34.06;40.83;;
69620;Laerm;57654;51.434;5.984;2023-07-09T00:48:19;36.59;33.24;41.05;;
69620;Laerm;57654;51.434;5.984;2023-07-09T00:48:30;37.13;34.16;40.28;;
69620;Laerm;57654;51.434;5.984;2023-07-09T00:48:42;37.32;33.57;40.85;;
69620;Laerm;57654;51.434;5.984;2023-07-09T00:48:56;35.57;32.75;40.07;;
69620;Laerm;57654;51.434;5.984;2023-07-09T00:49:09;36.17;33.39;41.89;;
69620;Laerm;57654;51.434;5.984;2023-07-09T00:49:28;36.21;33.52;39.24;;
69620;Laerm;57654;51.434;5.984;2023-07-09T00:49:39;35.96;33.19;40.14;;
69620;Laerm;57654;51.434;5.984;2023-07-09T00:49:59;36.82;33.32;42.46;;
69620;Laerm;57654;51.434;5.984;2023-07-09T00:50:56;37.00;33.89;44.50;;
69620;Laerm;57654;51.434;5.984;2023-07-09T00:51:11;36.72;33.79;40.24;;
69620;Laerm;57654;51.434;5.984;2023-07-09T00:51:22;36.37;33.87;40.14;;
69620;Laerm;57654;51.434;5.984;2023-07-09T00:51:33;37.43;33.50;42.18;;
69620;Laerm;57654;51.434;5.984;2023-07-09T00:51:46;38.23;34.56;44.44;;
69620;Laerm;57654;51.434;5.984;2023-07-09T00:51:58;37.03;33.43;41.77;;
69620;Laerm;57654;51.434;5.984;2023-07-09T00:52:37;35.98;33.02;39.75;;
69620;Laerm;57654;51.434;5.984;2023-07-09T00:52:52;36.14;33.24;40.51;;
69620;Laerm;57654;51.434;5.984;2023-07-09T00:53:08;36.32;32.75;40.57;;
69620;Laerm;57654;51.434;5.984;2023-07-09T00:53:22;37.03;32.74;41.13;;
69620;Laerm;57654;51.434;5.984;2023-07-09T00:53:35;36.32;33.86;39.30;;
69620;Laerm;57654;51.434;5.984;2023-07-09T00:53:45;35.91;33.62;38.49;;
69620;Laerm;57654;51.434;5.984;2023-07-09T00:54:00;36.64;33.50;40.34;;
69620;Laerm;57654;51.434;5.984;2023-07-09T00:54:28;37.00;34.17;42.09;;
69620;Laerm;57654;51.434;5.984;2023-07-09T00:54:41;36.67;33.06;41.85;;
69620;Laerm;57654;51.434;5.984;2023-07-09T00:54:53;37.49;34.69;41.57;;
69620;Laerm;57654;51.434;5.984;2023-07-09T00:55:05;35.38;33.03;38.35;;
69620;Laerm;57654;51.434;5.984;2023-07-09T00:55:19;35.56;33.19;38.19;;
69620;Laerm;57654;51.434;5.984;2023-07-09T00:55:31;37.34;33.99;46.57;;
69620;Laerm;57654;51.434;5.984;2023-07-09T00:55:42;37.31;34.11;41.15;;
69620;Laerm;57654;51.434;5.984;2023-07-09T00:55:56;36.50;33.55;40.08;;
69620;Laerm;57654;51.434;5.984;2023-07-09T00:56:08;35.36;33.04;38.10;;
69620;Laerm;57654;51.434;5.984;2023-07-09T00:56:26;35.48;33.72;38.61;;
69620;Laerm;57654;51.434;5.984;2023-07-09T00:56:40;35.55;33.32;38.73;;
69620;Laerm;57654;51.434;5.984;2023-07-09T00:56:52;35.62;33.41;39.26;;
69620;Laerm;57654;51.434;5.984;2023-07-09T00:57:11;35.50;33.10;37.99;;
69620;Laerm;57654;51.434;5.984;2023-07-09T00:57:23;35.84;33.67;39.33;;
69620;Laerm;57654;51.434;5.984;2023-07-09T00:57:36;35.47;32.89;37.84;;
69620;Laerm;57654;51.434;5.984;2023-07-09T00:57:48;37.01;33.72;44.30;;
69620;Laerm;57654;51.434;5.984;2023-07-09T00:58:06;36.54;33.70;40.61;;
69620;Laerm;57654;51.434;5.984;2023-07-09T00:58:20;36.20;33.49;39.41;;
69620;Laerm;57654;51.434;5.984;2023-07-09T00:58:31;36.81;34.39;40.23;;
69620;Laerm;57654;51.434;5.984;2023-07-09T00:58:43;36.39;34.04;39.44;;
69620;Laerm;57654;51.434;5.984;2023-07-09T00:58:57;35.80;33.56;37.82;;
69620;Laerm;57654;51.434;5.984;2023-07-09T00:59:11;36.56;33.84;39.83;;
69620;Laerm;57654;51.434;5.984;2023-07-09T00:59:23;36.20;33.19;40.18;;
69620;Laerm;57654;51.434;5.984;2023-07-09T00:59:38;35.46;32.39;38.47;;
69620;Laerm;57654;51.434;5.984;2023-07-09T00:59:58;35.56;33.59;38.39;;
69620;Laerm;57654;51.434;5.984;2023-07-09T01:00:17;36.32;33.25;41.86;;
69620;Laerm;57654;51.434;5.984;2023-07-09T01:00:28;35.77;33.36;39.01;;
69620;Laerm;57654;51.434;5.984;2023-07-09T01:00:50;36.05;33.30;39.80;;
69620;Laerm;57654;51.434;5.984;2023-07-09T01:01:04;35.63;33.22;38.76;;
69620;Laerm;57654;51.434;5.984;2023-07-09T01:01:18;35.86;33.63;39.30;;
69620;Laerm;57654;51.434;5.984;2023-07-09T01:01:29;35.62;33.06;38.82;;
69620;Laerm;57654;51.434;5.984;2023-07-09T01:01:39;35.22;32.81;37.80;;
69620;Laerm;57654;51.434;5.984;2023-07-09T01:01:50;35.60;32.75;38.46;;
69620;Laerm;57654;51.434;5.984;2023-07-09T01:02:02;35.65;33.49;38.72;;
69620;Laerm;57654;51.434;5.984;2023-07-09T01:02:12;35.25;33.08;37.78;;
69620;Laerm;57654;51.434;5.984;2023-07-09T01:02:23;35.28;32.16;39.55;;
69620;Laerm;57654;51.434;5.984;2023-07-09T01:02:34;35.36;32.86;38.13;;
69620;Laerm;57654;51.434;5.984;2023-07-09T01:02:45;35.79;33.09;39.33;;
69620;Laerm;57654;51.434;5.984;2023-07-09T01:02:58;36.66;33.35;40.15;;
69620;Laerm;57654;51.434;5.984;2023-07-09T01:03:13;36.11;32.90;39.14;;
69620;Laerm;57654;51.434;5.984;2023-07-09T01:03:32;36.90;33.95;40.43;;
69620;Laerm;57654;51.434;5.984;2023-07-09T01:03:45;37.31;34.35;40.77;;
69620;Laerm;57654;51.434;5.984;2023-07-09T01:03:57;36.37;33.00;40.40;;
69620;Laerm;57654;51.434;5.984;2023-07-09T01:04:09;36.12;33.50;39.84;;
69620;Laerm;57654;51.434;5.984;2023-07-09T01:04:20;37.36;33.88;40.09;;
69620;Laerm;57654;51.434;5.984;2023-07-09T01:04:31;37.48;34.80;40.68;;
69620;Laerm;57654;51.434;5.984;2023-07-09T01:04:41;36.13;33.57;39.12;;
69620;Laerm;57654;51.434;5.984;2023-07-09T01:04:54;35.97;33.51;38.38;;
69620;Laerm;57654;51.434;5.984;2023-07-09T01:05:05;36.23;34.06;38.67;;
69620;Laerm;57654;51.434;5.984;2023-07-09T01:05:16;36.78;33.26;40.59;;
69620;Laerm;57654;51.434;5.984;2023-07-09T01:05:27;36.44;34.16;41.42;;
69620;Laerm;57654;51.434;5.984;2023-07-09T01:05:38;36.76;34.20;39.54;;
69620;Laerm;57654;51.434;5.984;2023-07-09T01:05:48;36.55;34.38;39.46;;
69620;Laerm;57654;51.434;5.984;2023-07-09T01:06:01;36.51;34.14;40.24;;
69620;Laerm;57654;51.434;5.984;2023-07-09T01:06:13;37.40;34.38;41.79;;
69620;Laerm;57654;51.434;5.984;2023-07-09T01:06:30;36.46;33.68;39.81;;
69620;Laerm;57654;51.434;5.984;2023-07-09T01:06:43;36.08;33.78;40.52;;
69620;Laerm;57654;51.434;5.984;2023-07-09T01:06:55;36.07;33.48;38.85;;
69620;Laerm;57654;51.434;5.984;2023-07-09T01:07:05;36.16;33.79;38.96;;
69620;Laerm;57654;51.434;5.984;2023-07-09T01:07:16;36.41;34.18;39.49;;
69620;Laerm;57654;51.434;5.984;2023-07-09T01:07:27;36.40;33.69;39.01;;
69620;Laerm;57654;51.434;5.984;2023-07-09T01:07:38;36.57;34.38;40.70;;
69620;Laerm;57654;51.434;5.984;2023-07-09T01:07:48;36.47;33.59;39.43;;
69620;Laerm;57654;51.434;5.984;2023-07-09T01:07:58;36.54;34.20;38.95;;
69620;Laerm;57654;51.434;5.984;2023-07-09T01:08:09;36.58;33.77;39.78;;
69620;Laerm;57654;51.434;5.984;2023-07-09T01:08:20;36.51;33.72;39.38;;
69620;Laerm;57654;51.434;5.984;2023-07-09T01:08:31;36.32;33.35;39.11;;
69620;Laerm;57654;51.434;5.984;2023-07-09T01:08:42;36.42;33.73;39.40;;
69620;Laerm;57654;51.434;5.984;2023-07-09T01:08:52;36.59;34.07;39.30;;
69620;Laerm;57654;51.434;5.984;2023-07-09T01:09:03;36.43;34.07;40.11;;
69620;Laerm;57654;51.434;5.984;2023-07-09T01:09:14;36.41;32.64;39.08;;
69620;Laerm;57654;51.434;5.984;2023-07-09T01:09:25;36.56;34.01;39.37;;
69620;Laerm;57654;51.434;5.984;2023-07-09T01:09:35;36.55;34.25;40.91;;
69620;Laerm;57654;51.434;5.984;2023-07-09T01:09:51;35.75;33.31;38.38;;
69620;Laerm;57654;51.434;5.984;2023-07-09T01:10:01;35.68;33.45;39.56;;
69620;Laerm;57654;51.434;5.984;2023-07-09T01:10:12;35.71;32.99;41.14;;
69620;Laerm;57654;51.434;5.984;2023-07-09T01:10:23;35.70;33.33;39.64;;
69620;Laerm;57654;51.434;5.984;2023-07-09T01:10:34;35.68;32.99;39.30;;
69620;Laerm;57654;51.434;5.984;2023-07-09T01:10:45;35.60;32.75;40.10;;
69620;Laerm;57654;51.434;5.984;2023-07-09T01:10:56;35.85;32.92;39.24;;
69620;Laerm;57654;51.434;5.984;2023-07-09T01:11:13;35.63;33.05;38.20;;
69620;Laerm;57654;51.434;5.984;2023-07-09T01:11:24;36.16;32.87;40.81;;
69620;Laerm;57654;51.434;5.984;2023-07-09T01:11:34;36.00;32.74;39.05;;
69620;Laerm;57654;51.434;5.984;2023-07-09T01:11:48;36.31;33.83;39.41;;
69620;Laerm;57654;51.434;5.984;2023-07-09T01:11:58;36.10;33.60;38.69;;
69620;Laerm;57654;51.434;5.984;2023-07-09T01:12:11;36.48;32.90;40.70;;